Mon Ta — WDG3264 — position and weather

sailwx.info

Track history (hours):
 
Tides and Currents Weather Stations Pressure Air Temp Water Temp Dewpoint Dewpoint Depression Visibility Wind Speed Wind Dir Waves Ship Positions

Mon Ta

Owner: LA Carriers, LLC, Cut Off, LA. More information available from US FCC via Universal Licensing System and Coast Guard Vessel Documentation Center.

Last reported at 2018-Feb-09 07:01 UTC. Time now 2018-Feb-19 06:02 UTC.
Position N 32°45' W 091°09'.
Warning: this ship's position is 9 days out of date.

Length 23 m; draft 3 m.

Type: Towing. MMSI: 367524240.

Date/timePositionNaut miles runAvg speedWind from/ knotsBaromVisibWave heightAir tempDewpointWater temp
2018-Feb-09 07:01N 32°45' W 091°09'4 2.0
2018-Feb-09 05:01N 32°44' W 091°04'1 2.7
2018-Feb-09 04:31N 32°43' W 091°03'20 1.5
2018-Feb-08 15:30N 32°23' W 090°60'17 1.3
2018-Feb-08 02:30N 32°07' W 091°07'3 0.9
2018-Feb-07 22:59N 32°05' W 091°04'2 1.3
2018-Feb-07 21:42N 32°04' W 091°03'  
2018-Feb-03 18:26N 29°32' W 090°53'2 5.9
2018-Feb-03 18:01N 29°32' W 090°50'3 6.1
2018-Feb-03 17:30N 29°32' W 090°47'3 5.5
2018-Feb-03 17:00N 29°34' W 090°44'1 1.3
2018-Feb-03 16:00N 29°35' W 090°43'0 0.0
2018-Feb-03 15:30N 29°35' W 090°43'2 4.3
2018-Feb-03 15:00N 29°37' W 090°42'3 6.4
2018-Feb-03 14:31N 29°35' W 090°38'3 6.3
2018-Feb-03 14:01N 29°34' W 090°35'3 6.3
2018-Feb-03 13:29N 29°34' W 090°31'7 6.3
2018-Feb-03 12:25N 29°33' W 090°23'1 0.0
2018-Feb-01 22:43N 29°33' W 090°24'5 6.5
2018-Feb-01 22:01N 29°34' W 090°30'3 6.4
2018-Feb-01 21:30N 29°34' W 090°33'9 4.3
2018-Feb-01 19:30N 29°34' W 090°43'0 0.0
2018-Feb-01 19:01N 29°34' W 090°43'0 0.6
2018-Feb-01 18:30N 29°34' W 090°44'3 6.3
2018-Feb-01 18:00N 29°32' W 090°47'11 0.4
2018-Jan-31 16:46N 29°36' W 090°58'2 6.9
2018-Jan-31 16:30N 29°34' W 090°57'5 7.0
2018-Jan-31 15:48N 29°32' W 090°52'2 6.9
2018-Jan-31 15:31N 29°32' W 090°50'3 6.7
2018-Jan-31 15:00N 29°32' W 090°46'3 5.9
2018-Jan-31 14:31N 29°34' W 090°43'1 0.8
2018-Jan-31 13:00N 29°35' W 090°43'2 3.7
2018-Jan-31 12:30N 29°36' W 090°41'3 5.6
2018-Jan-31 12:00N 29°35' W 090°38'3 5.6
2018-Jan-31 11:31N 29°34' W 090°35'3 5.3
2018-Jan-31 11:00N 29°34' W 090°32'7 6.2
2018-Jan-31 09:52N 29°33' W 090°24'2 4.3
2018-Jan-31 09:26N 29°35' W 090°23'  
Track history (hours):
 
Tides and Currents Weather Stations Pressure Air Temp Water Temp Dewpoint Dewpoint Depression Visibility Wind Speed Wind Dir Waves Ship Positions

Mon Ta

Owner: LA Carriers, LLC, Cut Off, LA. More information available from US FCC via Universal Licensing System and Coast Guard Vessel Documentation Center.

Last reported at 2018-Feb-09 07:01 UTC. Time now 2018-Feb-19 06:02 UTC.
Position N 32°45' W 091°09'.
Warning: this ship's position is 9 days out of date.

Length 23 m; draft 3 m.

Type: Towing. MMSI: 367524240.

Date/timePositionNaut miles runAvg speedWind from/ knotsBaromVisibWave heightAir tempDewpointWater temp
2018-Feb-09 07:01N 32°45' W 091°09'4 2.0
2018-Feb-09 05:01N 32°44' W 091°04'1 2.7
2018-Feb-09 04:31N 32°43' W 091°03'20 1.5
2018-Feb-08 15:30N 32°23' W 090°60'17 1.3
2018-Feb-08 02:30N 32°07' W 091°07'3 0.9
2018-Feb-07 22:59N 32°05' W 091°04'2 1.3
2018-Feb-07 21:42N 32°04' W 091°03'  
2018-Feb-03 18:26N 29°32' W 090°53'2 5.9
2018-Feb-03 18:01N 29°32' W 090°50'3 6.1
2018-Feb-03 17:30N 29°32' W 090°47'3 5.5
2018-Feb-03 17:00N 29°34' W 090°44'1 1.3
2018-Feb-03 16:00N 29°35' W 090°43'0 0.0
2018-Feb-03 15:30N 29°35' W 090°43'2 4.3
2018-Feb-03 15:00N 29°37' W 090°42'3 6.4
2018-Feb-03 14:31N 29°35' W 090°38'3 6.3
2018-Feb-03 14:01N 29°34' W 090°35'3 6.3
2018-Feb-03 13:29N 29°34' W 090°31'7 6.3
2018-Feb-03 12:25N 29°33' W 090°23'1 0.0
2018-Feb-01 22:43N 29°33' W 090°24'5 6.5
2018-Feb-01 22:01N 29°34' W 090°30'3 6.4
2018-Feb-01 21:30N 29°34' W 090°33'9 4.3
2018-Feb-01 19:30N 29°34' W 090°43'0 0.0
2018-Feb-01 19:01N 29°34' W 090°43'0 0.6
2018-Feb-01 18:30N 29°34' W 090°44'3 6.3
2018-Feb-01 18:00N 29°32' W 090°47'11 0.4
2018-Jan-31 16:46N 29°36' W 090°58'2 6.9
2018-Jan-31 16:30N 29°34' W 090°57'5 7.0
2018-Jan-31 15:48N 29°32' W 090°52'2 6.9
2018-Jan-31 15:31N 29°32' W 090°50'3 6.7
2018-Jan-31 15:00N 29°32' W 090°46'3 5.9
2018-Jan-31 14:31N 29°34' W 090°43'1 0.8
2018-Jan-31 13:00N 29°35' W 090°43'2 3.7
2018-Jan-31 12:30N 29°36' W 090°41'3 5.6
2018-Jan-31 12:00N 29°35' W 090°38'3 5.6
2018-Jan-31 11:31N 29°34' W 090°35'3 5.3
2018-Jan-31 11:00N 29°34' W 090°32'7 6.2
2018-Jan-31 09:52N 29°33' W 090°24'2 4.3
2018-Jan-31 09:26N 29°35' W 090°23'  

Dump ship's entire track history